This is the latest recevied weather packets stored in our database for station/object KE5VT. If no packets are shown the sender has not sent any weather packets the latest 10 day(s).
| Time | Temp. | Humidity | Pressure | Rain* | Wind** | Luminosity | Snow |
|---|---|---|---|---|---|---|---|
| 1787864150 | 31.11° C | 67% | 1010 hPa | 0 mm | - | 212 W/m² | - |
| 1787863849 | 31.67° C | 65% | 1010.1 hPa | 0 mm | - | 110 W/m² | - |
| 1787863548 | 31.11° C | 66% | 1010.1 hPa | 0 mm | - | 447 W/m² | - |
| 1787863243 | 31.67° C | 64% | 1010.3 hPa | 0 mm | - | 465 W/m² | - |
| 1787862939 | 30.56° C | 68% | 1010.2 hPa | 0 mm | - | 157 W/m² | - |
| 1787862634 | 30.56° C | 66% | 1010.2 hPa | 0 mm | - | 248 W/m² | - |
| 1787862329 | 30.56° C | 66% | 1010.2 hPa | 0 mm | - | 142 W/m² | - |
| 1787862025 | 30.56° C | 69% | 1010.4 hPa | 0 mm | - | 170 W/m² | - |
| 1787861724 | 30.56° C | 69% | 1010.3 hPa | 0 mm | - | 136 W/m² | - |
| 1787861422 | 30° C | 67% | 1010.5 hPa | 0 mm | - | 121 W/m² | - |
| 1787861117 | 30.56° C | 68% | 1010.5 hPa | 0 mm | - | 123 W/m² | - |
| 1787860816 | 30.56° C | 66% | 1010.5 hPa | 0 mm | - | 103 W/m² | - |
| 1787860511 | 30° C | 70% | 1010.8 hPa | 0 mm | - | 125 W/m² | - |
| 1787860206 | 30.56° C | 69% | 1010.7 hPa | 0 mm | - | 133 W/m² | - |
| 1787859901 | 31.11° C | 65% | 1010.7 hPa | 0 mm | - | 163 W/m² | - |
| 1787859596 | 31.67° C | 65% | 1010.8 hPa | 0 mm | - | 174 W/m² | - |
| 1787859290 | 31.67° C | 64% | 1011 hPa | 0 mm | - | 189 W/m² | - |
| 1787858987 | 31.11° C | 67% | 1011 hPa | 0 mm | - | 331 W/m² | - |
| 1787858683 | 31.11° C | 66% | 1011.1 hPa | 0 mm | - | 287 W/m² | - |
| 1787858378 | 31.67° C | 66% | 1010.9 hPa | 0 mm | - | 179 W/m² | - |
| 1787858073 | 31.67° C | 66% | 1011 hPa | 0 mm | - | 229 W/m² | - |
| 1787857768 | 31.11° C | 67% | 1010.9 hPa | 0 mm | - | 185 W/m² | - |
| 1787857464 | 31.11° C | 68% | 1011.1 hPa | 0 mm | - | 258 W/m² | - |
| 1787857162 | 30.56° C | 69% | 1010.9 hPa | 0 mm | - | 229 W/m² | - |
| 1787856857 | 30° C | 67% | 1010.8 hPa | 0 mm | - | 451 W/m² | - |
* Rain latest hour (hover to see other rain measurements)
** Current wind speed in m/s (hover to see current wind gust speed)